Time;durP1;ratioP1;P1;durP2;ratioP2;P2;SDS_P1;SDS_P2;PMS_P1;PMS_P2;Temp;Humidity;BMP_temperature;BMP_pressure;BME280_temperature;BME280_humidity;BME280_pressure;Samples;Min_cycle;Max_cycle;Signal;HPM_P1;HPM_P2
2023/09/25 00:01:39;;;;;;;4.45;4.03;;;;;;;;;;5111852;28;20422;-62
2023/09/25 00:04:05;;;;;;;4.15;2.70;;;;;;;;;;5110759;28;20497;-62
2023/09/25 00:06:30;;;;;;;4.05;3.47;;;;;;;;;;5111956;28;20047;-60
2023/09/25 00:08:56;;;;;;;2.83;2.53;;;;;;;;;;5111756;28;20042;-62
2023/09/25 00:11:21;;;;;;;2.15;1.73;;;;;;;;;;5111987;28;20481;-62
2023/09/25 00:13:47;;;;;;;3.65;2.45;;;;;;;;;;5111621;28;20123;-62
2023/09/25 00:16:14;;;;;;;3.00;2.25;;;;;;;;;;5111793;28;20039;-61
2023/09/25 00:18:39;;;;;;;2.00;1.80;;;;;;;;;;5110769;28;20051;-61
2023/09/25 00:21:05;;;;;;;2.25;1.70;;;;;;;;;;5111933;28;20035;-61
2023/09/25 00:23:31;;;;;;;1.77;1.50;;;;;;;;;;5111874;28;20028;-62
2023/09/25 00:26:00;;;;;;;1.42;1.30;;;;;;;;;;5111770;28;20542;-62
2023/09/25 00:28:27;;;;;;;2.35;1.30;;;;;;;;;;5110584;28;20050;-61
2023/09/25 00:30:53;;;;;;;2.08;1.40;;;;;;;;;;5093874;28;20039;-61
2023/09/25 00:33:18;;;;;;;1.70;1.60;;;;;;;;;;5111822;28;20118;-60
2023/09/25 00:35:44;;;;;;;1.58;1.45;;;;;;;;;;5111615;28;20046;-62
2023/09/25 00:38:10;;;;;;;1.55;1.20;;;;;;;;;;5111447;28;20071;-62
2023/09/25 00:40:36;;;;;;;1.40;1.20;;;;;;;;;;5110071;28;20043;-61
2023/09/25 00:43:04;;;;;;;1.17;1.10;;;;;;;;;;5110391;28;20114;-62
2023/09/25 00:45:29;;;;;;;1.73;1.40;;;;;;;;;;5111750;28;20035;-62
2023/09/25 00:47:55;;;;;;;1.40;1.30;;;;;;;;;;5110343;28;20039;-61
2023/09/25 00:50:21;;;;;;;1.60;1.50;;;;;;;;;;5110240;28;20036;-62
2023/09/25 00:52:47;;;;;;;1.23;1.15;;;;;;;;;;5101499;28;20118;-64
2023/09/25 00:55:14;;;;;;;1.48;1.35;;;;;;;;;;5090076;28;20602;-63
2023/09/25 00:57:39;;;;;;;1.42;1.30;;;;;;;;;;5091440;28;20032;-61
2023/09/25 01:00:11;;;;;;;1.17;1.13;;;;;;;;;;5091314;28;20043;-62
2023/09/25 01:02:38;;;;;;;1.30;1.20;;;;;;;;;;5073184;28;20537;-61
2023/09/25 01:05:08;;;;;;;1.58;1.48;;;;;;;;;;5091287;28;20032;-63
2023/09/25 01:07:34;;;;;;;1.67;1.50;;;;;;;;;;5091314;28;20400;-62
2023/09/25 01:10:18;;;;;;;1.63;1.45;;;;;;;;;;5072948;28;20036;-63
2023/09/25 01:12:45;;;;;;;1.48;1.38;;;;;;;;;;5102669;28;20043;-63
2023/09/25 01:15:14;;;;;;;1.85;1.52;;;;;;;;;;5111791;28;20100;-62
2023/09/25 01:17:41;;;;;;;1.67;1.58;;;;;;;;;;5115295;28;20032;-62
2023/09/25 01:20:12;;;;;;;2.90;1.50;;;;;;;;;;5115179;28;20036;-60
2023/09/25 01:22:42;;;;;;;2.60;1.50;;;;;;;;;;5113687;28;20047;-61
2023/09/25 01:25:11;;;;;;;2.03;1.55;;;;;;;;;;5113932;28;20036;-62
2023/09/25 01:27:37;;;;;;;1.67;1.58;;;;;;;;;;5115006;28;20043;-60
2023/09/25 01:30:03;;;;;;;3.03;1.70;;;;;;;;;;5114715;28;20100;-62
2023/09/25 01:32:30;;;;;;;2.75;1.75;;;;;;;;;;5113479;28;20057;-60
2023/09/25 01:34:55;;;;;;;3.58;1.52;;;;;;;;;;5113349;28;20513;-63
2023/09/25 01:37:21;;;;;;;2.00;1.67;;;;;;;;;;5113346;28;20028;-59
2023/09/25 01:39:47;;;;;;;3.28;2.00;;;;;;;;;;5114627;28;20108;-61
2023/09/25 01:42:13;;;;;;;2.60;1.80;;;;;;;;;;5113430;28;20032;-60
2023/09/25 01:44:38;;;;;;;4.13;2.20;;;;;;;;;;5096363;28;20062;-61
2023/09/25 01:47:04;;;;;;;2.60;2.20;;;;;;;;;;5114577;28;20034;-61
2023/09/25 01:49:31;;;;;;;3.30;2.20;;;;;;;;;;5114658;27;20036;-62
2023/09/25 01:51:56;;;;;;;2.33;2.03;;;;;;;;;;5096241;28;20130;-62
2023/09/25 01:54:22;;;;;;;3.05;2.10;;;;;;;;;;5113228;28;20251;-60
2023/09/25 01:56:48;;;;;;;7.55;5.03;;;;;;;;;;5073900;28;20032;-62
2023/09/25 01:59:13;;;;;;;3.38;2.92;;;;;;;;;;5073729;28;20047;-60
2023/09/25 02:01:39;;;;;;;6.45;5.50;;;;;;;;;;5072558;28;20040;-61
2023/09/25 02:04:05;;;;;;;18.38;13.32;;;;;;;;;;5072191;28;20048;-61
2023/09/25 02:06:30;;;;;;;11.30;9.40;;;;;;;;;;5072404;28;20032;-60
2023/09/25 02:08:56;;;;;;;10.60;8.30;;;;;;;;;;5072328;28;20032;-62
2023/09/25 02:11:22;;;;;;;9.32;7.80;;;;;;;;;;5074605;28;20037;-60
2023/09/25 02:13:47;;;;;;;13.60;10.40;;;;;;;;;;5112938;28;20308;-61
2023/09/25 02:16:13;;;;;;;13.88;10.15;;;;;;;;;;5114174;28;20032;-62
2023/09/25 02:18:40;;;;;;;15.23;12.00;;;;;;;;;;5112566;28;20521;-61
2023/09/25 02:21:06;;;;;;;13.52;9.93;;;;;;;;;;5094094;28;20063;-60
2023/09/25 02:23:32;;;;;;;6.45;5.45;;;;;;;;;;5094168;28;20035;-61
2023/09/25 02:25:58;;;;;;;8.45;6.22;;;;;;;;;;5113855;28;20054;-62
2023/09/25 02:28:23;;;;;;;6.85;5.22;;;;;;;;;;5112594;28;20217;-61
2023/09/25 02:30:50;;;;;;;9.52;7.15;;;;;;;;;;5095788;28;20040;-62
2023/09/25 02:33:15;;;;;;;8.15;5.80;;;;;;;;;;5113923;28;20172;-61
2023/09/25 02:35:42;;;;;;;7.93;5.40;;;;;;;;;;5089920;28;20135;-61
2023/09/25 02:38:08;;;;;;;7.18;5.22;;;;;;;;;;5073129;28;20119;-61
2023/09/25 02:40:33;;;;;;;7.85;5.80;;;;;;;;;;5055014;28;20064;-61
2023/09/25 02:43:00;;;;;;;7.30;5.20;;;;;;;;;;5072952;28;20037;-62
2023/09/25 02:45:26;;;;;;;7.13;5.20;;;;;;;;;;5072975;28;20059;-62
2023/09/25 02:47:51;;;;;;;8.02;5.90;;;;;;;;;;5072850;28;20028;-62
2023/09/25 02:50:17;;;;;;;7.93;5.57;;;;;;;;;;5071606;28;20047;-61
2023/09/25 02:52:43;;;;;;;8.00;5.47;;;;;;;;;;5071456;28;20079;-62
2023/09/25 02:55:10;;;;;;;7.63;5.60;;;;;;;;;;5071451;28;20052;-62
2023/09/25 02:57:35;;;;;;;6.88;5.60;;;;;;;;;;5071322;28;20050;-61
2023/09/25 03:00:01;;;;;;;6.85;5.13;;;;;;;;;;5071477;28;20128;-61
2023/09/25 03:02:31;;;;;;;7.80;4.57;;;;;;;;;;5071301;28;20047;-61
2023/09/25 03:04:57;;;;;;;5.88;4.93;;;;;;;;;;5072479;28;20405;-62
2023/09/25 03:07:22;;;;;;;6.13;4.50;;;;;;;;;;5071081;28;20041;-61
2023/09/25 03:09:48;;;;;;;7.82;4.85;;;;;;;;;;5071280;28;20515;-62
2023/09/25 03:12:14;;;;;;;6.28;5.03;;;;;;;;;;5087850;28;20035;-60
2023/09/25 03:14:39;;;;;;;10.18;5.40;;;;;;;;;;5112872;28;20039;-63
2023/09/25 03:17:06;;;;;;;9.32;5.95;;;;;;;;;;5111533;28;20052;-61
2023/09/25 03:19:35;;;;;;;6.82;5.45;;;;;;;;;;5094424;28;20472;-62
2023/09/25 03:22:01;;;;;;;7.30;5.37;;;;;;;;;;5111405;28;20500;-60
2023/09/25 03:24:27;;;;;;;6.25;5.35;;;;;;;;;;5111219;28;20046;-62
2023/09/25 03:26:52;;;;;;;8.35;5.50;;;;;;;;;;5111460;28;20131;-62
2023/09/25 03:29:18;;;;;;;8.38;6.10;;;;;;;;;;5112355;28;20050;-62
2023/09/25 03:31:43;;;;;;;7.38;5.90;;;;;;;;;;5112759;28;20031;-62
2023/09/25 03:34:09;;;;;;;7.50;5.95;;;;;;;;;;5111254;28;20043;-62
2023/09/25 03:36:35;;;;;;;6.90;5.32;;;;;;;;;;5111349;28;20040;-61
2023/09/25 03:39:01;;;;;;;6.03;5.03;;;;;;;;;;5110607;28;20047;-62
2023/09/25 03:41:26;;;;;;;7.45;5.60;;;;;;;;;;5110995;28;20416;-61
2023/09/25 03:43:53;;;;;;;6.40;5.13;;;;;;;;;;5110914;28;20038;-62
2023/09/25 03:46:18;;;;;;;6.60;4.97;;;;;;;;;;5111192;28;20031;-62
2023/09/25 03:48:47;;;;;;;6.20;5.05;;;;;;;;;;5110701;28;20036;-63
2023/09/25 03:51:12;;;;;;;5.95;5.20;;;;;;;;;;5112212;28;20031;-62
2023/09/25 03:53:38;;;;;;;5.93;5.30;;;;;;;;;;5110632;28;20035;-62
2023/09/25 03:56:04;;;;;;;7.00;5.47;;;;;;;;;;5109977;28;20115;-62
2023/09/25 03:58:29;;;;;;;6.05;5.40;;;;;;;;;;5110885;28;20032;-60
2023/09/25 04:00:57;;;;;;;7.68;5.60;;;;;;;;;;5112165;28;20114;-64
2023/09/25 04:03:22;;;;;;;9.32;6.40;;;;;;;;;;5111826;28;20492;-61
2023/09/25 04:05:48;;;;;;;10.25;7.97;;;;;;;;;;5112226;28;20047;-62
2023/09/25 04:08:13;;;;;;;14.32;11.60;;;;;;;;;;5110632;28;20032;-62
2023/09/25 04:10:39;;;;;;;17.08;12.98;;;;;;;;;;5111788;28;20023;-61
2023/09/25 04:13:04;;;;;;;12.63;10.70;;;;;;;;;;5110482;28;20046;-61
2023/09/25 04:15:31;;;;;;;9.55;7.45;;;;;;;;;;5111849;28;20047;-67
2023/09/25 04:17:57;;;;;;;10.95;9.27;;;;;;;;;;5111960;28;20031;-62
2023/09/25 04:20:25;;;;;;;8.30;6.43;;;;;;;;;;5111926;28;20033;-63
2023/09/25 04:22:57;;;;;;;7.95;6.00;;;;;;;;;;5110321;28;20038;-63
2023/09/25 04:25:22;;;;;;;10.23;8.75;;;;;;;;;;5111852;28;20028;-64
2023/09/25 04:27:50;;;;;;;13.43;9.02;;;;;;;;;;5111836;28;20054;-64
2023/09/25 04:30:17;;;;;;;10.70;7.90;;;;;;;;;;5111828;28;20147;-63
2023/09/25 04:32:44;;;;;;;10.05;7.55;;;;;;;;;;5110381;28;20043;-63
2023/09/25 04:35:12;;;;;;;10.13;7.78;;;;;;;;;;5111547;28;20044;-64
2023/09/25 04:37:38;;;;;;;11.52;9.25;;;;;;;;;;5111871;28;20122;-62
2023/09/25 04:40:10;;;;;;;15.15;10.32;;;;;;;;;;5111396;28;20054;-63
2023/09/25 04:42:36;;;;;;;12.48;10.35;;;;;;;;;;5111903;28;20650;-62
2023/09/25 04:45:01;;;;;;;10.25;7.78;;;;;;;;;;5110888;28;20118;-63
2023/09/25 04:47:29;;;;;;;16.20;10.50;;;;;;;;;;5111827;28;20378;-63
2023/09/25 04:49:55;;;;;;;20.67;18.23;;;;;;;;;;5110449;28;20035;-64
2023/09/25 04:52:23;;;;;;;10.73;8.70;;;;;;;;;;5115599;28;20039;-63
2023/09/25 04:54:49;;;;;;;11.18;7.80;;;;;;;;;;5115593;28;20479;-63
2023/09/25 04:57:15;;;;;;;13.40;11.07;;;;;;;;;;5114223;28;20056;-63
2023/09/25 04:59:40;;;;;;;16.40;14.43;;;;;;;;;;5115600;28;20507;-64
2023/09/25 05:02:06;;;;;;;10.40;8.35;;;;;;;;;;5113910;28;20035;-64
2023/09/25 05:04:31;;;;;;;13.80;8.07;;;;;;;;;;5113894;28;20039;-64
2023/09/25 05:06:57;;;;;;;6.97;5.95;;;;;;;;;;5114483;28;20043;-63
2023/09/25 05:09:23;;;;;;;7.22;5.60;;;;;;;;;;5096818;28;20054;-62
2023/09/25 05:11:48;;;;;;;7.22;5.15;;;;;;;;;;5114964;28;20043;-65
2023/09/25 05:14:14;;;;;;;7.88;5.63;;;;;;;;;;5113191;28;20039;-63
2023/09/25 05:16:40;;;;;;;7.32;6.35;;;;;;;;;;5115118;28;20118;-62
2023/09/25 05:19:05;;;;;;;7.95;5.53;;;;;;;;;;5112955;28;20048;-63
2023/09/25 05:21:31;;;;;;;8.60;5.78;;;;;;;;;;5113995;27;20054;-61
2023/09/25 05:23:57;;;;;;;7.38;6.18;;;;;;;;;;5113974;28;20027;-62
2023/09/25 05:26:22;;;;;;;7.07;5.50;;;;;;;;;;5113813;28;20030;-63
2023/09/25 05:28:48;;;;;;;8.23;5.95;;;;;;;;;;5100574;28;20390;-62
2023/09/25 05:31:13;;;;;;;7.63;5.53;;;;;;;;;;5091912;28;20405;-61
2023/09/25 05:33:39;;;;;;;8.38;5.57;;;;;;;;;;5092661;28;20541;-63
2023/09/25 05:36:05;;;;;;;7.20;5.72;;;;;;;;;;5094065;28;20119;-63
2023/09/25 05:38:30;;;;;;;6.38;5.13;;;;;;;;;;5094323;28;20064;-62
2023/09/25 05:40:56;;;;;;;6.85;4.90;;;;;;;;;;5094258;28;20090;-61
2023/09/25 05:43:23;;;;;;;6.88;5.40;;;;;;;;;;5094219;28;20040;-64
2023/09/25 05:45:48;;;;;;;8.82;5.82;;;;;;;;;;5092829;28;20031;-63
2023/09/25 05:48:14;;;;;;;7.28;5.43;;;;;;;;;;5093711;28;20057;-63
2023/09/25 05:50:39;;;;;;;7.03;5.80;;;;;;;;;;5094126;28;20177;-63
2023/09/25 05:53:05;;;;;;;8.25;5.68;;;;;;;;;;5093715;28;20072;-62
2023/09/25 05:55:31;;;;;;;5.88;5.20;;;;;;;;;;5093811;28;20040;-64
2023/09/25 05:57:57;;;;;;;7.60;5.50;;;;;;;;;;5092567;28;20189;-63
2023/09/25 06:00:23;;;;;;;6.38;4.93;;;;;;;;;;5094076;28;20127;-65
2023/09/25 06:02:48;;;;;;;6.70;5.18;;;;;;;;;;5094037;28;20038;-63
2023/09/25 06:05:15;;;;;;;6.32;5.07;;;;;;;;;;5093731;28;20036;-63
2023/09/25 06:07:42;;;;;;;6.22;4.50;;;;;;;;;;5093935;28;20043;-63
2023/09/25 06:10:08;;;;;;;5.45;4.70;;;;;;;;;;5092512;28;20032;-61
2023/09/25 06:12:33;;;;;;;6.25;4.50;;;;;;;;;;5104543;28;20039;-63
2023/09/25 06:14:59;;;;;;;6.18;4.38;;;;;;;;;;5114068;28;20105;-62
2023/09/25 06:17:26;;;;;;;5.63;4.80;;;;;;;;;;5114013;28;20070;-61
2023/09/25 06:19:53;;;;;;;5.53;4.47;;;;;;;;;;5114092;28;20139;-63
2023/09/25 06:22:21;;;;;;;6.43;4.93;;;;;;;;;;5110237;27;20032;-62
2023/09/25 06:24:48;;;;;;;8.35;4.97;;;;;;;;;;5054955;28;20029;-63
2023/09/25 06:27:14;;;;;;;5.28;4.10;;;;;;;;;;5072827;28;20075;-62
2023/09/25 06:29:41;;;;;;;4.88;4.35;;;;;;;;;;5073314;28;20056;-64
2023/09/25 06:32:06;;;;;;;9.68;6.53;;;;;;;;;;5072294;28;20573;-63
2023/09/25 06:34:32;;;;;;;6.55;3.97;;;;;;;;;;5072405;28;20136;-64
2023/09/25 06:36:58;;;;;;;4.53;3.72;;;;;;;;;;5072949;28;20068;-62
2023/09/25 06:39:24;;;;;;;4.63;3.88;;;;;;;;;;5072115;28;20082;-64
2023/09/25 06:41:49;;;;;;;4.40;3.97;;;;;;;;;;5072951;28;20504;-63
2023/09/25 06:44:19;;;;;;;4.60;4.10;;;;;;;;;;5071028;28;20128;-63
2023/09/25 06:46:45;;;;;;;7.13;4.53;;;;;;;;;;5069891;28;20549;-63
2023/09/25 06:49:11;;;;;;;5.32;4.32;;;;;;;;;;5071610;28;20064;-62
2023/09/25 06:51:36;;;;;;;5.13;3.85;;;;;;;;;;5072306;28;20067;-61
2023/09/25 06:54:02;;;;;;;6.75;3.83;;;;;;;;;;5071938;28;20040;-62
2023/09/25 06:56:28;;;;;;;6.55;4.63;;;;;;;;;;5072382;28;20037;-62
2023/09/25 06:58:54;;;;;;;4.40;4.00;;;;;;;;;;5072008;28;20037;-62
2023/09/25 07:01:21;;;;;;;6.22;3.92;;;;;;;;;;5054209;28;20135;-62
2023/09/25 07:03:47;;;;;;;4.78;3.90;;;;;;;;;;5071910;28;20086;-64
2023/09/25 07:06:12;;;;;;;7.38;3.88;;;;;;;;;;5054556;28;20040;-62
2023/09/25 07:08:38;;;;;;;5.40;4.00;;;;;;;;;;5071090;28;20087;-63
2023/09/25 07:11:04;;;;;;;4.45;4.05;;;;;;;;;;5070644;28;20044;-62
2023/09/25 07:13:30;;;;;;;7.10;4.07;;;;;;;;;;5079911;28;20043;-62
2023/09/25 07:16:03;;;;;;;6.65;3.85;;;;;;;;;;5070575;28;20077;-62
2023/09/25 07:18:29;;;;;;;5.07;4.00;;;;;;;;;;5070559;28;20186;-62
2023/09/25 07:20:54;;;;;;;4.80;4.20;;;;;;;;;;5071922;28;20578;-63
2023/09/25 07:23:20;;;;;;;6.82;3.80;;;;;;;;;;5071864;28;20409;-62
2023/09/25 07:25:45;;;;;;;4.50;3.80;;;;;;;;;;5071770;28;20039;-65
2023/09/25 07:28:11;;;;;;;6.20;3.60;;;;;;;;;;5071780;28;20062;-62
2023/09/25 07:30:41;;;;;;;5.35;3.83;;;;;;;;;;5071712;28;20037;-62
2023/09/25 07:33:07;;;;;;;4.95;3.78;;;;;;;;;;5071674;28;20122;-62
2023/09/25 07:35:34;;;;;;;4.47;3.85;;;;;;;;;;5071699;28;20462;-64
2023/09/25 07:38:00;;;;;;;4.88;3.67;;;;;;;;;;5071132;28;20047;-59
2023/09/25 07:40:26;;;;;;;8.23;3.88;;;;;;;;;;5071380;28;20080;-60
2023/09/25 07:42:52;;;;;;;4.75;3.72;;;;;;;;;;5071243;28;20033;-61
2023/09/25 07:45:22;;;;;;;5.43;4.10;;;;;;;;;;5071747;28;20136;-65
2023/09/25 07:47:48;;;;;;;6.88;3.97;;;;;;;;;;5071475;28;20039;-63
2023/09/25 07:50:14;;;;;;;4.53;3.80;;;;;;;;;;5071439;28;20119;-65
2023/09/25 07:52:40;;;;;;;5.82;3.33;;;;;;;;;;5071118;28;20505;-61
2023/09/25 07:55:08;;;;;;;6.60;3.67;;;;;;;;;;5071378;28;20109;-62
2023/09/25 07:57:39;;;;;;;6.85;4.45;;;;;;;;;;5082076;28;20028;-61
2023/09/25 08:00:23;;;;;;;5.57;5.07;;;;;;;;;;5071004;28;20037;-61
2023/09/25 08:02:51;;;;;;;6.90;4.72;;;;;;;;;;5071076;28;20037;-63
2023/09/25 08:05:22;;;;;;;6.90;5.40;;;;;;;;;;5070971;28;20501;-62
2023/09/25 08:07:49;;;;;;;7.30;5.05;;;;;;;;;;5071295;28;20099;-59
2023/09/25 08:10:15;;;;;;;7.10;5.50;;;;;;;;;;5071003;28;20028;-63
2023/09/25 08:12:41;;;;;;;5.97;5.13;;;;;;;;;;5075446;28;20044;-61
2023/09/25 08:15:07;;;;;;;5.95;5.32;;;;;;;;;;5089619;28;20046;-62
2023/09/25 08:17:32;;;;;;;5.60;5.00;;;;;;;;;;5082642;28;20441;-62
2023/09/25 08:19:58;;;;;;;6.72;5.07;;;;;;;;;;5071054;28;20033;-63
2023/09/25 08:22:25;;;;;;;6.22;4.68;;;;;;;;;;5069757;28;20080;-63
2023/09/25 08:24:51;;;;;;;9.20;4.60;;;;;;;;;;5069705;28;20059;-62
2023/09/25 08:27:18;;;;;;;6.68;5.20;;;;;;;;;;5073485;28;20513;-62
2023/09/25 08:29:45;;;;;;;7.70;4.88;;;;;;;;;;5075325;28;20025;-63
2023/09/25 08:32:11;;;;;;;5.10;4.60;;;;;;;;;;5056832;28;20036;-62
2023/09/25 08:34:36;;;;;;;5.57;4.05;;;;;;;;;;5073786;28;20043;-61
2023/09/25 08:37:02;;;;;;;6.70;4.60;;;;;;;;;;5075087;28;20036;-62
2023/09/25 08:39:27;;;;;;;5.95;4.10;;;;;;;;;;5074891;28;20541;-65
2023/09/25 08:41:53;;;;;;;4.97;3.80;;;;;;;;;;5074503;28;20047;-62
2023/09/25 08:44:19;;;;;;;4.57;3.90;;;;;;;;;;5073974;28;20107;-63
2023/09/25 08:46:46;;;;;;;4.60;4.18;;;;;;;;;;5073619;28;20174;-64
2023/09/25 08:49:12;;;;;;;4.93;3.90;;;;;;;;;;5073945;28;20049;-63
2023/09/25 08:51:39;;;;;;;5.88;4.05;;;;;;;;;;5072792;28;20099;-64
2023/09/25 08:54:06;;;;;;;5.50;3.92;;;;;;;;;;5092815;28;20196;-64
2023/09/25 08:56:32;;;;;;;8.27;4.10;;;;;;;;;;5076742;28;20044;-62
2023/09/25 08:59:02;;;;;;;5.43;3.85;;;;;;;;;;5094746;28;20378;-62
2023/09/25 09:01:27;;;;;;;;;;;;;;;;;;5095572;28;20113;-63
2023/09/25 09:03:53;;;;;;;6.20;3.50;;;;;;;;;;5094301;28;19911;-60
2023/09/25 09:06:19;;;;;;;5.65;3.75;;;;;;;;;;5094882;28;20047;-63
2023/09/25 09:08:46;;;;;;;5.97;3.75;;;;;;;;;;5094629;28;20504;-64
2023/09/25 09:11:12;;;;;;;8.57;7.45;;;;;;;;;;5094174;28;20042;-63
2023/09/25 09:13:45;;;;;;;11.88;8.48;;;;;;;;;;5074111;28;20044;-64
2023/09/25 09:16:12;;;;;;;4.53;3.85;;;;;;;;;;5073944;28;20028;-62
2023/09/25 09:18:38;;;;;;;5.13;3.85;;;;;;;;;;5074042;28;20393;-63
2023/09/25 09:21:04;;;;;;;5.50;3.80;;;;;;;;;;5074403;28;20039;-63
2023/09/25 09:23:39;;;;;;;7.65;3.83;;;;;;;;;;5072500;28;20024;-63
2023/09/25 09:26:07;;;;;;;4.20;3.80;;;;;;;;;;5074141;28;20036;-63
2023/09/25 09:28:33;;;;;;;4.28;3.80;;;;;;;;;;5074010;28;20445;-63
2023/09/25 09:31:03;;;;;;;4.35;3.85;;;;;;;;;;5072925;28;20032;-65
2023/09/25 09:33:29;;;;;;;5.18;4.03;;;;;;;;;;5055421;28;20544;-63
2023/09/25 09:35:55;;;;;;;9.00;4.40;;;;;;;;;;5072859;28;20573;-65
2023/09/25 09:38:22;;;;;;;4.75;4.05;;;;;;;;;;5073888;28;20164;-63
2023/09/25 09:40:49;;;;;;;5.20;3.63;;;;;;;;;;5071523;28;20501;-64
2023/09/25 09:43:16;;;;;;;6.22;4.25;;;;;;;;;;5072046;28;20524;-63
2023/09/25 09:45:44;;;;;;;7.38;4.28;;;;;;;;;;5073317;28;20437;-64
2023/09/25 09:48:10;;;;;;;4.63;3.78;;;;;;;;;;5071944;28;20555;-63
2023/09/25 09:50:38;;;;;;;6.90;3.85;;;;;;;;;;5073628;28;20494;-65
2023/09/25 09:53:05;;;;;;;6.68;3.72;;;;;;;;;;5072593;28;20040;-63
2023/09/25 09:55:31;;;;;;;4.32;3.17;;;;;;;;;;5072329;28;20040;-64
2023/09/25 09:57:57;;;;;;;4.13;3.30;;;;;;;;;;5073189;28;20390;-62
2023/09/25 10:00:23;;;;;;;3.70;3.22;;;;;;;;;;5072200;28;20104;-64
2023/09/25 10:02:49;;;;;;;4.03;3.20;;;;;;;;;;5072036;28;20044;-63
2023/09/25 10:05:17;;;;;;;8.45;6.38;;;;;;;;;;5073544;28;20565;-65
2023/09/25 10:08:03;;;;;;;6.43;3.65;;;;;;;;;;5073279;28;20105;-64
2023/09/25 10:10:29;;;;;;;6.68;2.95;;;;;;;;;;5073291;28;20036;-62
2023/09/25 10:12:56;;;;;;;4.78;3.05;;;;;;;;;;5086277;28;20036;-62
2023/09/25 10:15:23;;;;;;;4.03;3.08;;;;;;;;;;5073113;28;20047;-64
2023/09/25 10:17:48;;;;;;;3.75;3.10;;;;;;;;;;5073256;28;20040;-66
2023/09/25 10:20:26;;;;;;;3.53;3.00;;;;;;;;;;5073118;28;20040;-65
2023/09/25 10:22:52;;;;;;;4.78;3.10;;;;;;;;;;5073218;28;20047;-63
2023/09/25 10:25:19;;;;;;;3.63;2.80;;;;;;;;;;5072958;28;20032;-65
2023/09/25 10:27:44;;;;;;;4.88;2.83;;;;;;;;;;5073277;28;20489;-64
2023/09/25 10:30:12;;;;;;;3.33;2.60;;;;;;;;;;5071338;28;20036;-66
2023/09/25 10:32:43;;;;;;;5.00;2.90;;;;;;;;;;5073208;28;20094;-65
2023/09/25 10:35:27;;;;;;;3.88;3.00;;;;;;;;;;5072823;28;20129;-65
2023/09/25 10:38:12;;;;;;;4.90;3.70;;;;;;;;;;5071378;28;20051;-65
2023/09/25 10:40:41;;;;;;;3.22;2.90;;;;;;;;;;5071559;28;20056;-63
2023/09/25 10:43:06;;;;;;;5.30;3.17;;;;;;;;;;5071738;28;20045;-64
2023/09/25 10:45:34;;;;;;;4.10;2.75;;;;;;;;;;5076177;28;20031;-66
2023/09/25 10:48:00;;;;;;;2.92;2.53;;;;;;;;;;5089549;28;20086;-63
2023/09/25 10:50:25;;;;;;;4.85;2.75;;;;;;;;;;5072548;28;20040;-65
2023/09/25 10:52:51;;;;;;;3.95;2.80;;;;;;;;;;5072585;28;20032;-65
2023/09/25 10:55:16;;;;;;;4.55;2.90;;;;;;;;;;5071280;28;20272;-66
2023/09/25 10:57:42;;;;;;;5.25;2.78;;;;;;;;;;5072679;28;20040;-63
2023/09/25 11:00:11;;;;;;;4.80;2.83;;;;;;;;;;5090426;28;20122;-64
2023/09/25 11:02:36;;;;;;;5.00;2.95;;;;;;;;;;5091120;28;20046;-64
2023/09/25 11:05:02;;;;;;;3.53;3.00;;;;;;;;;;5090592;28;20028;-65
2023/09/25 11:07:30;;;;;;;3.53;2.67;;;;;;;;;;5092687;28;20044;-64
2023/09/25 11:09:55;;;;;;;3.88;2.65;;;;;;;;;;5090918;28;20036;-65
2023/09/25 11:12:21;;;;;;;4.55;2.80;;;;;;;;;;5092461;28;20040;-62
2023/09/25 11:14:47;;;;;;;2.78;2.40;;;;;;;;;;5071395;28;20554;-62
2023/09/25 11:17:13;;;;;;;3.08;2.40;;;;;;;;;;5069982;28;20032;-63
2023/09/25 11:19:44;;;;;;;3.35;2.70;;;;;;;;;;5071771;28;20117;-63
2023/09/25 11:22:11;;;;;;;3.58;2.80;;;;;;;;;;5080078;28;20024;-63
2023/09/25 11:24:37;;;;;;;4.30;2.70;;;;;;;;;;5080980;28;20569;-64
2023/09/25 11:27:09;;;;;;;2.85;2.50;;;;;;;;;;5080857;28;20032;-63
2023/09/25 11:29:35;;;;;;;2.55;2.35;;;;;;;;;;5080378;28;20032;-62
2023/09/25 11:32:02;;;;;;;6.13;2.95;;;;;;;;;;5080367;28;20075;-64
2023/09/25 11:34:29;;;;;;;3.47;2.60;;;;;;;;;;5081266;28;20051;-61
2023/09/25 11:36:57;;;;;;;5.25;2.53;;;;;;;;;;5080850;28;20541;-62
2023/09/25 11:39:23;;;;;;;2.60;2.05;;;;;;;;;;5080170;28;20064;-62
2023/09/25 11:41:48;;;;;;;3.75;2.15;;;;;;;;;;5081209;28;20466;-65
2023/09/25 11:44:14;;;;;;;3.47;2.53;;;;;;;;;;5078402;28;20099;-64
2023/09/25 11:46:43;;;;;;;4.95;2.40;;;;;;;;;;5069039;28;20027;-65
2023/09/25 11:49:08;;;;;;;2.95;2.30;;;;;;;;;;5069151;28;20040;-65
2023/09/25 11:51:34;;;;;;;2.85;2.30;;;;;;;;;;5069538;28;20402;-64
2023/09/25 11:53:59;;;;;;;3.25;2.40;;;;;;;;;;5070539;28;20036;-65
2023/09/25 11:56:25;;;;;;;3.17;2.40;;;;;;;;;;5070619;28;20039;-65
2023/09/25 11:58:50;;;;;;;4.63;2.65;;;;;;;;;;5069971;28;20387;-65
2023/09/25 12:01:16;;;;;;;4.13;2.13;;;;;;;;;;5071010;28;20483;-66
2023/09/25 12:03:42;;;;;;;3.75;2.50;;;;;;;;;;5069902;28;20067;-66
2023/09/25 12:06:09;;;;;;;2.78;2.13;;;;;;;;;;5071040;28;20701;-67
2023/09/25 12:08:35;;;;;;;2.65;2.20;;;;;;;;;;5070032;28;20041;-67
2023/09/25 12:11:00;;;;;;;2.80;2.25;;;;;;;;;;5070966;28;20044;-65
2023/09/25 12:13:26;;;;;;;5.30;2.20;;;;;;;;;;5108476;28;20046;-67
2023/09/25 12:15:52;;;;;;;2.35;2.15;;;;;;;;;;5090374;28;20044;-67
2023/09/25 12:18:17;;;;;;;6.25;2.10;;;;;;;;;;5069595;28;20032;-66
2023/09/25 12:20:43;;;;;;;4.88;2.63;;;;;;;;;;5069593;28;20477;-67
2023/09/25 12:23:09;;;;;;;3.22;2.40;;;;;;;;;;5071084;28;20040;-65
2023/09/25 12:25:35;;;;;;;5.15;2.35;;;;;;;;;;5070751;28;20124;-66
2023/09/25 12:28:02;;;;;;;3.03;2.30;;;;;;;;;;5071250;28;20036;-67
2023/09/25 12:30:28;;;;;;;4.60;2.20;;;;;;;;;;5070750;28;20032;-67
2023/09/25 12:32:53;;;;;;;3.28;1.88;;;;;;;;;;5069861;28;20540;-64
2023/09/25 12:35:20;;;;;;;3.28;2.03;;;;;;;;;;5070797;28;20076;-67
2023/09/25 12:37:46;;;;;;;2.63;2.10;;;;;;;;;;5071214;28;20531;-63
2023/09/25 12:40:15;;;;;;;5.15;2.13;;;;;;;;;;5070818;28;20194;-65
2023/09/25 12:42:42;;;;;;;6.95;2.55;;;;;;;;;;5071332;28;20094;-65
2023/09/25 12:45:08;;;;;;;2.97;2.30;;;;;;;;;;5069479;28;20489;-64
2023/09/25 12:47:34;;;;;;;3.33;2.20;;;;;;;;;;5089686;28;20028;-66
2023/09/25 12:49:59;;;;;;;2.30;2.00;;;;;;;;;;5091176;28;20039;-67
2023/09/25 12:52:26;;;;;;;5.40;2.30;;;;;;;;;;5089667;28;20485;-64
2023/09/25 12:54:53;;;;;;;7.45;2.15;;;;;;;;;;5077649;28;20551;-68
2023/09/25 12:57:22;;;;;;;3.28;2.08;;;;;;;;;;5069224;28;20070;-63
2023/09/25 12:59:47;;;;;;;2.25;1.92;;;;;;;;;;5069709;28;20048;-65
2023/09/25 13:02:14;;;;;;;4.93;1.90;;;;;;;;;;5068818;28;20037;-63
2023/09/25 13:04:40;;;;;;;6.20;2.22;;;;;;;;;;5050143;28;20041;-64
2023/09/25 13:07:06;;;;;;;3.10;1.92;;;;;;;;;;5066873;28;20540;-64
2023/09/25 13:09:32;;;;;;;3.47;2.00;;;;;;;;;;5068812;28;20029;-65
2023/09/25 13:11:57;;;;;;;4.15;2.25;;;;;;;;;;5078393;28;20065;-66
2023/09/25 13:14:23;;;;;;;5.20;2.35;;;;;;;;;;5094541;28;20055;-65
2023/09/25 13:16:49;;;;;;;4.65;2.50;;;;;;;;;;5075917;28;20115;-64
2023/09/25 13:19:14;;;;;;;4.90;3.75;;;;;;;;;;5087416;28;20442;-64
2023/09/25 13:21:40;;;;;;;6.13;3.28;;;;;;;;;;5094187;28;20565;-66
2023/09/25 13:24:06;;;;;;;4.82;2.70;;;;;;;;;;5092923;28;20467;-65
2023/09/25 13:26:31;;;;;;;4.90;2.80;;;;;;;;;;5093495;28;20042;-65
2023/09/25 13:28:57;;;;;;;4.20;2.42;;;;;;;;;;5092520;28;20032;-64
2023/09/25 13:31:23;;;;;;;5.45;2.50;;;;;;;;;;5094312;28;20055;-66
2023/09/25 13:33:49;;;;;;;5.13;2.33;;;;;;;;;;5094355;28;20031;-65
2023/09/25 13:36:15;;;;;;;4.35;2.40;;;;;;;;;;5094152;28;20532;-65
2023/09/25 13:38:41;;;;;;;4.45;2.28;;;;;;;;;;5092914;28;20475;-64
2023/09/25 13:41:07;;;;;;;5.65;2.60;;;;;;;;;;5092841;28;20045;-65
2023/09/25 13:43:33;;;;;;;3.95;2.70;;;;;;;;;;5094362;28;20047;-64
2023/09/25 13:45:59;;;;;;;4.00;2.42;;;;;;;;;;5093890;28;20123;-64
2023/09/25 13:48:25;;;;;;;3.92;2.78;;;;;;;;;;5092774;28;20122;-66
2023/09/25 13:50:51;;;;;;;8.40;3.20;;;;;;;;;;5075555;28;20032;-64
2023/09/25 13:53:17;;;;;;;2.50;2.00;;;;;;;;;;5093553;28;20089;-62
2023/09/25 13:55:46;;;;;;;3.17;2.25;;;;;;;;;;5093607;28;20132;-65
2023/09/25 13:58:12;;;;;;;7.10;2.53;;;;;;;;;;5091783;28;20164;-63
2023/09/25 14:00:38;;;;;;;3.40;2.67;;;;;;;;;;5093566;28;20123;-64
2023/09/25 14:03:04;;;;;;;4.85;2.60;;;;;;;;;;5092290;28;20433;-63
2023/09/25 14:05:31;;;;;;;4.28;2.63;;;;;;;;;;5093512;28;20524;-63
2023/09/25 14:07:57;;;;;;;3.08;2.58;;;;;;;;;;5093569;28;20115;-62
2023/09/25 14:10:22;;;;;;;4.18;2.60;;;;;;;;;;5093876;28;20118;-65
2023/09/25 14:12:48;;;;;;;5.18;2.40;;;;;;;;;;5097344;28;20082;-63
2023/09/25 14:15:14;;;;;;;3.38;2.80;;;;;;;;;;5073436;28;20162;-62
2023/09/25 14:17:40;;;;;;;4.93;2.67;;;;;;;;;;5073102;28;20033;-62
2023/09/25 14:20:09;;;;;;;5.20;2.63;;;;;;;;;;5073160;28;20043;-64
2023/09/25 14:22:35;;;;;;;3.88;2.53;;;;;;;;;;5071633;28;20037;-62
2023/09/25 14:25:02;;;;;;;5.68;2.60;;;;;;;;;;5072885;28;20514;-62
2023/09/25 14:27:30;;;;;;;5.15;2.53;;;;;;;;;;5072937;28;20119;-62
2023/09/25 14:29:56;;;;;;;5.68;2.55;;;;;;;;;;5072924;28;20554;-63
2023/09/25 14:32:22;;;;;;;3.83;2.60;;;;;;;;;;5084790;28;20057;-63
2023/09/25 14:34:48;;;;;;;3.28;2.58;;;;;;;;;;5093020;28;20127;-63
2023/09/25 14:37:14;;;;;;;5.70;2.90;;;;;;;;;;5093005;28;20170;-63